createdAt,value
2023-06-30T00:00:10.598Z,87.15
2023-06-30T00:01:10.750Z,93.80
2023-06-30T00:02:10.727Z,102.38
2023-06-30T00:03:10.864Z,95.00
2023-06-30T00:04:10.836Z,82.34
2023-06-30T00:05:10.975Z,78.15
2023-06-30T00:06:10.936Z,84.68
2023-06-30T00:07:11.080Z,87.91
2023-06-30T00:08:11.057Z,90.85
2023-06-30T00:09:11.198Z,90.98
2023-06-30T00:10:11.256Z,93.18
2023-06-30T00:11:11.624Z,95.85
2023-06-30T00:12:11.348Z,92.42
2023-06-30T00:13:11.356Z,92.68
2023-06-30T00:14:11.453Z,99.88
2023-06-30T00:15:11.512Z,102.74
2023-06-30T00:16:11.742Z,110.40
2023-06-30T00:17:11.646Z,103.41
2023-06-30T00:18:11.816Z,111.27
2023-06-30T00:19:11.746Z,110.65
2023-06-30T00:20:11.884Z,111.49
2023-06-30T00:21:11.916Z,118.67
2023-06-30T00:22:11.977Z,122.32
2023-06-30T00:23:12.001Z,115.24
2023-06-30T00:24:12.645Z,114.15
2023-06-30T00:25:12.895Z,111.84
2023-06-30T00:26:12.099Z,123.69
2023-06-30T00:27:12.131Z,123.25
2023-06-30T00:28:12.126Z,122.76
2023-06-30T00:29:12.083Z,123.20
2023-06-30T00:30:12.142Z,129.63
2023-06-30T00:31:12.126Z,134.33
2023-06-30T00:32:12.064Z,129.11
2023-06-30T00:33:12.384Z,128.27
2023-06-30T00:34:12.073Z,128.36
2023-06-30T00:35:12.013Z,130.76
2023-06-30T00:36:12.116Z,135.00
2023-06-30T00:37:12.105Z,137.14
2023-06-30T00:38:12.043Z,136.33
2023-06-30T00:39:12.047Z,137.52
2023-06-30T00:40:11.985Z,141.84
2023-06-30T00:41:12.014Z,142.82
2023-06-30T00:42:12.007Z,142.01
2023-06-30T00:43:12.028Z,144.46
2023-06-30T00:44:12.061Z,152.14
2023-06-30T00:45:11.949Z,156.09
2023-06-30T00:46:11.995Z,157.20
2023-06-30T00:47:12.146Z,162.87
2023-06-30T00:48:11.953Z,160.35
2023-06-30T00:49:11.947Z,157.43
2023-06-30T00:50:11.957Z,154.82
2023-06-30T00:51:11.937Z,152.45
2023-06-30T00:52:11.942Z,154.50
2023-06-30T00:53:11.947Z,163.92
2023-06-30T00:54:11.907Z,160.98
2023-06-30T00:55:11.951Z,166.86
2023-06-30T00:56:11.909Z,163.98
2023-06-30T00:57:11.926Z,158.07
2023-06-30T00:58:11.926Z,163.62
2023-06-30T00:59:11.937Z,167.20
2023-06-30T01:00:11.881Z,165.79
2023-06-30T01:01:11.852Z,171.75
2023-06-30T01:02:11.915Z,174.48
2023-06-30T01:03:12.093Z,173.66
2023-06-30T01:04:11.982Z,174.91
2023-06-30T01:05:11.843Z,176.81
2023-06-30T01:06:11.847Z,183.69
2023-06-30T01:07:11.879Z,183.83
2023-06-30T01:08:11.836Z,181.42
2023-06-30T01:09:11.848Z,176.99
2023-06-30T01:10:11.855Z,179.25
2023-06-30T01:11:11.909Z,181.38
2023-06-30T01:12:12.047Z,187.71
2023-06-30T01:13:12.088Z,183.41
2023-06-30T01:14:12.186Z,190.09
2023-06-30T01:15:12.275Z,186.63
2023-06-30T01:16:12.342Z,193.14
2023-06-30T01:17:12.409Z,197.06
2023-06-30T01:18:12.493Z,202.29
2023-06-30T01:19:12.528Z,202.24
2023-06-30T01:20:12.648Z,195.47
2023-06-30T01:21:12.693Z,191.46
2023-06-30T01:22:12.804Z,190.89
2023-06-30T01:23:12.760Z,195.25
2023-06-30T01:24:12.828Z,194.80
2023-06-30T01:25:12.889Z,197.65
2023-06-30T01:26:12.862Z,195.06
2023-06-30T01:27:12.881Z,195.66
2023-06-30T01:28:12.957Z,198.88
2023-06-30T01:29:13.018Z,202.84
2023-06-30T01:30:13.065Z,205.20
2023-06-30T01:31:13.202Z,203.16
2023-06-30T01:32:13.261Z,205.31
2023-06-30T01:33:13.235Z,203.78
2023-06-30T01:34:13.353Z,204.51
2023-06-30T01:35:13.423Z,203.22
2023-06-30T01:36:13.410Z,204.80
2023-06-30T01:37:13.480Z,205.11
2023-06-30T01:38:13.488Z,203.41
2023-06-30T01:39:13.537Z,204.52
2023-06-30T01:40:13.569Z,207.93
2023-06-30T01:41:13.602Z,204.58
2023-06-30T01:42:13.684Z,209.13
2023-06-30T01:43:13.726Z,210.91
2023-06-30T01:44:13.787Z,212.57
2023-06-30T01:45:13.787Z,213.17
2023-06-30T01:46:13.925Z,211.60
2023-06-30T01:47:14.223Z,212.49
2023-06-30T01:48:14.008Z,212.13
2023-06-30T01:49:14.126Z,216.10
2023-06-30T01:50:14.128Z,210.99
2023-06-30T01:51:14.272Z,215.07
2023-06-30T01:52:14.263Z,215.90
2023-06-30T01:53:14.330Z,213.63
2023-06-30T01:54:14.360Z,214.36
2023-06-30T01:55:14.467Z,215.99
2023-06-30T01:56:14.484Z,217.37
2023-06-30T01:57:14.488Z,218.59
2023-06-30T01:58:14.536Z,218.37
2023-06-30T01:59:14.543Z,218.60
2023-06-30T02:00:14.604Z,217.57
2023-06-30T02:01:14.690Z,217.68
2023-06-30T02:02:15.033Z,218.82
2023-06-30T02:03:15.267Z,221.66
2023-06-30T02:04:14.885Z,224.85
2023-06-30T02:05:14.954Z,228.40
2023-06-30T02:06:15.007Z,228.59
2023-06-30T02:07:15.083Z,229.78
2023-06-30T02:08:15.111Z,230.80
2023-06-30T02:09:15.272Z,231.87
2023-06-30T02:10:15.273Z,231.97
2023-06-30T02:11:15.645Z,231.59
2023-06-30T02:12:15.352Z,233.09
2023-06-30T02:13:15.464Z,234.31
2023-06-30T02:14:15.539Z,235.70
2023-06-30T02:15:15.591Z,236.17
2023-06-30T02:16:15.692Z,236.11
2023-06-30T02:17:15.696Z,236.78
2023-06-30T02:18:15.721Z,238.15
2023-06-30T02:19:15.781Z,240.32
2023-06-30T02:20:15.847Z,239.12
2023-06-30T02:21:15.972Z,238.74
2023-06-30T02:22:16.013Z,237.43
2023-06-30T02:23:16.039Z,239.53
2023-06-30T02:24:16.190Z,238.21
2023-06-30T02:25:16.186Z,237.69
2023-06-30T02:26:16.221Z,240.96
2023-06-30T02:27:16.344Z,241.34
2023-06-30T02:28:16.601Z,239.34
2023-06-30T02:29:16.414Z,239.80
2023-06-30T02:30:16.525Z,240.79
2023-06-30T02:31:16.549Z,239.30
2023-06-30T02:32:16.556Z,240.90
2023-06-30T02:33:16.660Z,239.81
2023-06-30T02:34:16.703Z,238.53
2023-06-30T02:35:16.807Z,243.70
2023-06-30T02:36:16.903Z,238.85
2023-06-30T02:37:16.929Z,241.98
2023-06-30T02:38:17.045Z,242.32
2023-06-30T02:39:17.124Z,244.65
2023-06-30T02:40:17.126Z,242.54
2023-06-30T02:41:17.161Z,242.70
2023-06-30T02:42:17.324Z,242.55
2023-06-30T02:43:17.264Z,241.99
2023-06-30T02:44:17.362Z,242.88
2023-06-30T02:45:17.340Z,245.39
2023-06-30T02:46:17.512Z,243.99
2023-06-30T02:47:17.488Z,242.98
2023-06-30T02:48:17.495Z,241.93
2023-06-30T02:49:17.586Z,239.39
2023-06-30T02:50:17.638Z,244.01
2023-06-30T02:51:17.711Z,246.63
2023-06-30T02:52:17.729Z,244.05
2023-06-30T02:53:17.805Z,244.29
2023-06-30T02:54:17.833Z,243.75
2023-06-30T02:55:18.401Z,240.40
2023-06-30T02:56:17.929Z,243.51
2023-06-30T02:57:17.979Z,243.01
2023-06-30T02:58:18.116Z,243.72
2023-06-30T02:59:18.087Z,243.01
2023-06-30T03:00:18.221Z,242.76
2023-06-30T03:01:18.314Z,242.71
2023-06-30T03:02:18.419Z,240.93
2023-06-30T03:03:18.380Z,239.83
2023-06-30T03:04:18.418Z,241.44
2023-06-30T03:05:18.711Z,240.75
2023-06-30T03:06:18.529Z,242.62
2023-06-30T03:07:18.639Z,240.46
2023-06-30T03:08:18.619Z,242.10
2023-06-30T03:09:18.650Z,241.65
2023-06-30T03:10:18.682Z,242.31
2023-06-30T03:11:19.197Z,241.04
2023-06-30T03:12:18.764Z,241.96
2023-06-30T03:13:18.884Z,240.53
2023-06-30T03:14:18.894Z,242.58
2023-06-30T03:15:19.005Z,237.54
2023-06-30T03:16:19.062Z,239.54
2023-06-30T03:17:19.007Z,239.88
2023-06-30T03:18:19.135Z,234.90
2023-06-30T03:19:19.028Z,238.83
2023-06-30T03:20:19.065Z,236.03
2023-06-30T03:21:19.148Z,238.48
2023-06-30T03:22:19.354Z,237.63
2023-06-30T03:23:19.707Z,235.20
2023-06-30T03:24:20.289Z,238.44
2023-06-30T03:25:19.372Z,237.02
2023-06-30T03:26:19.371Z,239.57
2023-06-30T03:27:19.427Z,236.42
2023-06-30T03:28:19.357Z,237.61
2023-06-30T03:29:19.391Z,235.38
2023-06-30T03:30:19.505Z,237.46
2023-06-30T03:31:19.555Z,235.51
2023-06-30T03:32:19.615Z,235.05
2023-06-30T03:33:19.784Z,234.10
2023-06-30T03:34:19.668Z,233.82
2023-06-30T03:35:19.641Z,234.80
2023-06-30T03:36:19.659Z,232.37
2023-06-30T03:37:19.916Z,234.01
2023-06-30T03:38:20.173Z,233.67
2023-06-30T03:39:19.810Z,233.48
2023-06-30T03:40:19.836Z,233.43
2023-06-30T03:41:19.824Z,231.24
2023-06-30T03:42:19.886Z,233.52
2023-06-30T03:43:19.908Z,232.14
2023-06-30T03:44:20.210Z,230.89
2023-06-30T03:45:20.036Z,228.55
2023-06-30T03:46:20.038Z,230.36
2023-06-30T03:47:20.139Z,231.94
2023-06-30T03:48:20.073Z,231.46
2023-06-30T03:49:20.246Z,230.27
2023-06-30T03:50:20.162Z,229.24
2023-06-30T03:51:20.149Z,230.18
2023-06-30T03:52:20.163Z,230.70
2023-06-30T03:53:20.291Z,226.47
2023-06-30T03:54:20.341Z,231.04
2023-06-30T03:55:20.428Z,229.19
2023-06-30T03:56:20.500Z,229.12
2023-06-30T03:57:20.629Z,226.16
2023-06-30T03:58:20.616Z,226.92
2023-06-30T03:59:20.622Z,227.96
2023-06-30T04:00:20.638Z,226.83
2023-06-30T04:01:20.644Z,226.16
2023-06-30T04:02:20.712Z,225.02
2023-06-30T04:03:20.894Z,224.43
2023-06-30T04:04:20.903Z,220.04
2023-06-30T04:05:20.790Z,222.49
2023-06-30T04:06:20.921Z,222.58
2023-06-30T04:07:20.908Z,221.57
2023-06-30T04:08:20.941Z,220.38
2023-06-30T04:09:20.838Z,219.91
2023-06-30T04:10:20.903Z,222.27
2023-06-30T04:11:20.965Z,223.66
2023-06-30T04:12:21.029Z,223.44
2023-06-30T04:13:21.036Z,223.35
2023-06-30T04:14:21.150Z,222.94
2023-06-30T04:15:21.046Z,223.89
2023-06-30T04:16:21.148Z,224.63
2023-06-30T04:17:21.066Z,226.32
2023-06-30T04:18:21.179Z,225.13
2023-06-30T04:19:21.173Z,226.41
2023-06-30T04:20:21.117Z,226.26
2023-06-30T04:21:21.120Z,224.76
2023-06-30T04:22:21.088Z,228.46
2023-06-30T04:23:21.132Z,225.32
2023-06-30T04:24:21.209Z,226.51
2023-06-30T04:25:21.337Z,226.51
2023-06-30T04:26:21.430Z,228.70
2023-06-30T04:27:21.463Z,229.57
2023-06-30T04:28:21.476Z,229.65
2023-06-30T04:29:21.496Z,229.88
2023-06-30T04:30:21.455Z,230.08
2023-06-30T04:31:21.486Z,231.40
2023-06-30T04:32:21.466Z,231.35
2023-06-30T04:33:21.585Z,230.46
2023-06-30T04:34:21.634Z,231.44
2023-06-30T04:35:21.725Z,232.94
2023-06-30T04:36:21.827Z,233.90
2023-06-30T04:37:22.256Z,232.77
2023-06-30T04:38:24.128Z,232.94
2023-06-30T04:39:21.816Z,235.55
2023-06-30T04:40:21.829Z,234.53
2023-06-30T04:41:21.780Z,235.35
2023-06-30T04:42:21.818Z,234.83
2023-06-30T04:43:21.750Z,234.04
2023-06-30T04:44:21.752Z,230.41
2023-06-30T04:45:21.764Z,231.32
2023-06-30T04:46:21.810Z,232.27
2023-06-30T04:47:21.818Z,235.95
2023-06-30T04:48:21.749Z,232.30
2023-06-30T04:49:21.730Z,230.76
2023-06-30T04:50:21.765Z,231.34
2023-06-30T04:51:21.746Z,230.97
2023-06-30T04:52:21.714Z,232.90
2023-06-30T04:53:21.780Z,230.88
2023-06-30T04:54:21.732Z,230.38
2023-06-30T04:55:22.279Z,230.04
2023-06-30T04:56:21.735Z,229.85
2023-06-30T04:57:21.659Z,228.70
2023-06-30T04:58:21.686Z,230.93
2023-06-30T04:59:21.656Z,229.40
2023-06-30T05:00:21.660Z,229.17
2023-06-30T05:01:21.657Z,230.75
2023-06-30T05:02:21.694Z,229.92
2023-06-30T05:03:21.844Z,230.47
2023-06-30T05:04:21.624Z,227.03
2023-06-30T05:05:21.637Z,229.22
2023-06-30T05:06:21.640Z,228.89
2023-06-30T05:07:21.720Z,228.21
2023-06-30T05:08:21.622Z,228.43
2023-06-30T05:09:21.611Z,231.04
2023-06-30T05:10:21.621Z,230.04
2023-06-30T05:11:21.628Z,229.50
2023-06-30T05:12:21.587Z,230.55
2023-06-30T05:13:22.003Z,229.25
2023-06-30T05:14:21.549Z,229.13
2023-06-30T05:15:21.564Z,229.35
2023-06-30T05:16:21.691Z,229.92
2023-06-30T05:17:21.671Z,228.35
2023-06-30T05:18:21.550Z,228.86
2023-06-30T05:19:21.599Z,231.09
2023-06-30T05:20:21.520Z,229.63
2023-06-30T05:21:21.539Z,230.44
2023-06-30T05:22:21.519Z,227.56
2023-06-30T05:23:21.497Z,229.93
2023-06-30T05:24:21.520Z,228.66
2023-06-30T05:25:21.639Z,231.39
2023-06-30T05:26:21.523Z,230.28
2023-06-30T05:27:22.306Z,229.95
2023-06-30T05:28:21.472Z,228.11
2023-06-30T05:29:21.485Z,228.83
2023-06-30T05:30:21.486Z,227.86
2023-06-30T05:31:21.485Z,226.97
2023-06-30T05:32:21.563Z,226.43
2023-06-30T05:33:21.514Z,224.55
2023-06-30T05:34:21.476Z,226.96
2023-06-30T05:35:21.495Z,226.98
2023-06-30T05:36:21.441Z,226.36
2023-06-30T05:37:21.446Z,232.41
2023-06-30T05:38:21.395Z,235.13
2023-06-30T05:39:21.413Z,235.06
2023-06-30T05:40:21.425Z,237.57
2023-06-30T05:41:21.437Z,242.55
2023-06-30T05:42:21.427Z,243.56
2023-06-30T05:43:21.390Z,250.00
2023-06-30T05:44:21.461Z,249.33
2023-06-30T05:45:22.179Z,250.00
2023-06-30T05:46:21.421Z,250.00
2023-06-30T05:47:21.431Z,249.44
2023-06-30T05:48:21.599Z,249.97
2023-06-30T05:49:21.536Z,250.00
2023-06-30T05:50:21.592Z,250.00
2023-06-30T05:51:21.647Z,247.37
2023-06-30T05:52:22.025Z,248.06
2023-06-30T05:53:21.727Z,245.92
2023-06-30T05:54:21.737Z,247.35
2023-06-30T05:55:21.821Z,248.17
2023-06-30T05:56:21.939Z,247.36
2023-06-30T05:57:21.950Z,248.36
2023-06-30T05:58:22.013Z,244.63
2023-06-30T05:59:22.029Z,247.14
2023-06-30T06:00:22.101Z,248.65
2023-06-30T06:01:22.322Z,248.16
2023-06-30T06:02:22.275Z,246.59
2023-06-30T06:03:22.348Z,245.43
2023-06-30T06:04:22.774Z,240.51
2023-06-30T06:05:22.589Z,241.13
2023-06-30T06:06:22.454Z,241.26
2023-06-30T06:07:22.726Z,242.56
2023-06-30T06:08:22.638Z,240.36
2023-06-30T06:09:22.637Z,240.54
2023-06-30T06:10:22.646Z,241.80
2023-06-30T06:11:22.774Z,243.89
2023-06-30T06:12:22.891Z,244.16
2023-06-30T06:13:22.797Z,245.83
2023-06-30T06:14:22.880Z,243.66
2023-06-30T06:15:22.983Z,243.70
2023-06-30T06:16:22.965Z,241.81
2023-06-30T06:17:22.959Z,240.08
2023-06-30T06:18:23.042Z,238.34
2023-06-30T06:19:23.116Z,241.17
2023-06-30T06:20:23.124Z,241.18
2023-06-30T06:21:23.173Z,238.70
2023-06-30T06:22:23.277Z,240.90
2023-06-30T06:23:23.291Z,240.23
2023-06-30T06:24:23.392Z,241.33
2023-06-30T06:25:23.386Z,243.13
2023-06-30T06:26:23.399Z,243.00
2023-06-30T06:27:23.514Z,243.46
2023-06-30T06:28:23.581Z,240.03
2023-06-30T06:29:23.604Z,241.82
2023-06-30T06:30:23.752Z,243.53
2023-06-30T06:31:24.419Z,242.45
2023-06-30T06:32:23.804Z,242.69
2023-06-30T06:33:23.871Z,242.94
2023-06-30T06:34:23.961Z,243.63
2023-06-30T06:35:23.947Z,243.27
2023-06-30T06:36:24.016Z,244.61
2023-06-30T06:37:24.061Z,244.49
2023-06-30T06:38:24.077Z,242.04
2023-06-30T06:39:24.148Z,241.91
2023-06-30T06:40:24.200Z,242.25
2023-06-30T06:41:24.295Z,241.60
2023-06-30T06:42:24.314Z,241.45
2023-06-30T06:43:24.342Z,239.89
2023-06-30T06:44:24.386Z,239.80
2023-06-30T06:45:24.418Z,237.04
2023-06-30T06:46:24.503Z,240.51
2023-06-30T06:47:24.627Z,241.01
2023-06-30T06:48:24.713Z,240.46
2023-06-30T06:49:24.716Z,239.51
2023-06-30T06:50:24.796Z,240.19
2023-06-30T06:51:24.776Z,238.21
2023-06-30T06:52:24.885Z,239.58
2023-06-30T06:53:24.928Z,239.72
2023-06-30T06:54:25.002Z,234.57
2023-06-30T06:55:25.052Z,238.71
2023-06-30T06:56:25.082Z,237.98
2023-06-30T06:57:25.152Z,238.16
2023-06-30T06:58:25.170Z,234.84
2023-06-30T06:59:25.249Z,235.41
2023-06-30T07:00:25.337Z,234.92
2023-06-30T07:01:25.409Z,236.42
2023-06-30T07:02:25.473Z,236.41
2023-06-30T07:03:25.543Z,237.37
2023-06-30T07:04:25.466Z,236.92
2023-06-30T07:05:25.574Z,231.47
2023-06-30T07:06:25.639Z,236.36
2023-06-30T07:07:25.716Z,234.11
2023-06-30T07:08:25.778Z,235.27
2023-06-30T07:09:25.840Z,232.27
2023-06-30T07:10:25.883Z,233.67
2023-06-30T07:11:26.016Z,236.62
2023-06-30T07:12:26.036Z,234.94
2023-06-30T07:13:26.114Z,236.47
2023-06-30T07:14:26.172Z,231.59
2023-06-30T07:15:26.215Z,232.62
2023-06-30T07:16:26.311Z,234.20
2023-06-30T07:17:26.326Z,234.53
2023-06-30T07:18:26.384Z,232.61
2023-06-30T07:19:26.393Z,234.53
2023-06-30T07:20:26.480Z,233.18
2023-06-30T07:21:26.622Z,232.65
2023-06-30T07:22:26.572Z,234.11
2023-06-30T07:23:27.358Z,232.48
2023-06-30T07:24:26.621Z,232.62
2023-06-30T07:25:26.707Z,231.92
2023-06-30T07:26:26.760Z,230.21
2023-06-30T07:27:26.786Z,234.58
2023-06-30T07:28:26.882Z,230.31
2023-06-30T07:29:26.830Z,233.75
2023-06-30T07:30:26.840Z,232.89
2023-06-30T07:31:26.953Z,232.82
2023-06-30T07:32:27.241Z,234.41
2023-06-30T07:33:27.124Z,232.85
2023-06-30T07:34:27.146Z,231.57
2023-06-30T07:35:27.248Z,233.22
2023-06-30T07:36:27.255Z,235.60
2023-06-30T07:37:27.283Z,241.49
2023-06-30T07:38:27.406Z,240.24
2023-06-30T07:39:27.455Z,240.57
2023-06-30T07:40:30.339Z,241.38
2023-06-30T07:41:28.522Z,241.61
2023-06-30T07:42:27.466Z,241.77
2023-06-30T07:43:27.486Z,241.91
2023-06-30T07:44:27.483Z,239.94
2023-06-30T07:45:27.526Z,241.88
2023-06-30T07:46:27.505Z,238.78
2023-06-30T07:47:27.546Z,237.27
2023-06-30T07:48:27.640Z,238.30
2023-06-30T07:49:27.621Z,237.73
2023-06-30T07:50:27.727Z,235.03
2023-06-30T07:51:27.740Z,236.53
2023-06-30T07:52:27.777Z,234.19
2023-06-30T07:53:27.919Z,237.53
2023-06-30T07:54:27.926Z,235.60
2023-06-30T07:55:28.001Z,235.08
2023-06-30T07:56:27.995Z,234.36
2023-06-30T07:57:28.093Z,237.49
2023-06-30T07:58:28.186Z,234.73
2023-06-30T07:59:28.200Z,237.05
2023-06-30T08:00:28.271Z,235.84
2023-06-30T08:01:28.336Z,238.69
2023-06-30T08:02:28.462Z,241.85
2023-06-30T08:03:28.497Z,240.85
2023-06-30T08:04:28.763Z,241.81
2023-06-30T08:05:28.944Z,241.40
2023-06-30T08:06:28.606Z,242.56
2023-06-30T08:07:44.489Z,241.65
2023-06-30T08:08:29.699Z,241.76
2023-06-30T08:09:28.687Z,242.26
2023-06-30T08:10:28.675Z,242.55
2023-06-30T08:11:28.634Z,243.14
2023-06-30T08:12:28.655Z,243.84
2023-06-30T08:13:28.664Z,245.93
2023-06-30T08:14:28.674Z,244.89
2023-06-30T08:15:28.672Z,247.03
2023-06-30T08:16:28.732Z,246.99
2023-06-30T08:17:34.557Z,248.42
2023-06-30T08:18:32.686Z,248.57
2023-06-30T08:19:47.178Z,248.71
2023-06-30T08:20:29.796Z,249.06
2023-06-30T08:21:28.838Z,250.35
2023-06-30T08:22:28.804Z,250.63
2023-06-30T08:23:28.719Z,251.91
2023-06-30T08:24:28.791Z,253.61
2023-06-30T08:25:28.731Z,244.75
2023-06-30T08:26:28.753Z,245.39
2023-06-30T08:27:28.749Z,246.75
2023-06-30T08:28:28.814Z,244.35
2023-06-30T08:29:28.863Z,246.42
2023-06-30T08:30:28.950Z,248.13
2023-06-30T08:31:29.066Z,250.00
2023-06-30T08:32:29.033Z,250.00
2023-06-30T08:33:39.883Z,250.00
2023-06-30T08:34:30.144Z,250.37
2023-06-30T08:35:29.493Z,252.24
2023-06-30T08:36:29.079Z,255.96
2023-06-30T08:37:29.083Z,261.91
2023-06-30T08:38:30.306Z,274.72
2023-06-30T08:39:29.072Z,251.61
2023-06-30T08:40:29.142Z,249.93
2023-06-30T08:41:29.099Z,248.18
2023-06-30T08:42:29.013Z,244.94
2023-06-30T08:43:29.023Z,243.37
2023-06-30T08:44:29.097Z,247.80
2023-06-30T08:45:29.133Z,249.10
2023-06-30T08:46:29.290Z,250.00
2023-06-30T08:47:29.268Z,250.00
2023-06-30T08:48:29.308Z,250.00
2023-06-30T08:49:29.412Z,250.07
2023-06-30T08:50:29.373Z,250.00
2023-06-30T08:51:29.388Z,249.04
2023-06-30T08:52:32.366Z,248.17
2023-06-30T08:53:29.757Z,249.73
2023-06-30T08:54:29.407Z,248.79
2023-06-30T08:55:29.415Z,250.53
2023-06-30T08:56:29.411Z,249.39
2023-06-30T08:57:29.470Z,248.97
2023-06-30T08:58:29.419Z,250.00
2023-06-30T08:59:29.389Z,249.64
2023-06-30T09:00:29.799Z,250.00
2023-06-30T09:01:29.399Z,250.00
2023-06-30T09:02:29.533Z,249.12
2023-06-30T09:03:29.459Z,249.62
2023-06-30T09:04:29.714Z,248.29
2023-06-30T09:05:29.314Z,249.71
2023-06-30T09:06:29.322Z,247.33
2023-06-30T09:07:29.382Z,246.28
2023-06-30T09:08:29.290Z,247.59
2023-06-30T09:09:29.299Z,249.78
2023-06-30T09:10:29.382Z,250.00
2023-06-30T09:11:29.319Z,247.52
2023-06-30T09:12:29.321Z,248.01
2023-06-30T09:13:29.272Z,250.00
2023-06-30T09:14:29.645Z,249.58
2023-06-30T09:15:29.267Z,247.21
2023-06-30T09:16:29.275Z,243.09
2023-06-30T09:17:29.278Z,242.00
2023-06-30T09:18:29.258Z,238.36
2023-06-30T09:19:29.256Z,251.39
2023-06-30T09:20:29.278Z,248.05
2023-06-30T09:21:29.274Z,249.44
2023-06-30T09:22:53.033Z,246.87
2023-06-30T09:23:30.215Z,247.00
2023-06-30T09:24:29.244Z,246.98
2023-06-30T09:25:29.301Z,245.40
2023-06-30T09:26:31.461Z,246.45
2023-06-30T09:27:29.226Z,247.50
2023-06-30T09:28:29.243Z,247.17
2023-06-30T09:29:29.162Z,245.09
2023-06-30T09:30:29.237Z,248.31
2023-06-30T09:31:29.257Z,244.55
2023-06-30T09:32:29.152Z,243.83
2023-06-30T09:33:29.160Z,244.92
2023-06-30T09:34:29.398Z,241.94
2023-06-30T09:35:29.173Z,242.18
2023-06-30T09:36:29.114Z,238.85
2023-06-30T09:37:29.121Z,273.52
2023-06-30T09:38:29.807Z,250.00
2023-06-30T09:39:29.125Z,242.13
2023-06-30T09:40:29.184Z,238.07
2023-06-30T09:41:29.094Z,236.70
2023-06-30T09:42:29.096Z,235.48
2023-06-30T09:43:29.154Z,232.90
2023-06-30T09:44:29.115Z,226.93
2023-06-30T09:45:29.072Z,228.60
2023-06-30T09:46:31.935Z,226.07
2023-06-30T09:47:29.132Z,220.83
2023-06-30T09:48:29.048Z,221.25
2023-06-30T09:49:29.057Z,213.72
2023-06-30T09:50:29.071Z,211.56
2023-06-30T09:51:29.083Z,209.49
2023-06-30T09:52:29.026Z,210.11
2023-06-30T09:53:29.034Z,205.64
2023-06-30T09:54:43.203Z,204.12
2023-06-30T09:55:30.070Z,204.27
2023-06-30T09:56:29.000Z,204.30
2023-06-30T09:57:29.035Z,200.56
2023-06-30T09:58:29.027Z,198.76
2023-06-30T09:59:29.050Z,197.87
2023-06-30T10:00:36.410Z,195.53
2023-06-30T10:01:29.973Z,195.58
2023-06-30T10:02:29.024Z,195.58
2023-06-30T10:03:29.118Z,191.63
2023-06-30T10:04:28.955Z,192.84
2023-06-30T10:05:28.945Z,190.01
2023-06-30T10:06:29.045Z,189.73
2023-06-30T10:07:29.158Z,185.91
2023-06-30T10:08:28.920Z,184.36
2023-06-30T10:09:28.929Z,183.83
2023-06-30T10:10:29.099Z,183.91
2023-06-30T10:11:29.011Z,180.99
2023-06-30T10:12:29.100Z,182.99
2023-06-30T10:13:29.222Z,181.22
2023-06-30T10:14:29.168Z,176.83
2023-06-30T10:15:29.246Z,178.01
2023-06-30T10:16:29.328Z,178.72
2023-06-30T10:17:29.446Z,176.63
2023-06-30T10:18:29.472Z,176.78
2023-06-30T10:19:29.510Z,175.38
2023-06-30T10:20:42.598Z,173.27
2023-06-30T10:21:30.505Z,173.36
2023-06-30T10:22:29.939Z,173.31
2023-06-30T10:23:29.489Z,170.60
2023-06-30T10:24:29.502Z,172.84
2023-06-30T10:25:29.523Z,171.86
2023-06-30T10:26:30.420Z,173.64
2023-06-30T10:27:29.535Z,171.38
2023-06-30T10:28:29.455Z,172.63
2023-06-30T10:29:29.526Z,172.30
2023-06-30T10:30:29.631Z,173.47
2023-06-30T10:31:29.596Z,173.10
2023-06-30T10:32:29.693Z,173.32
2023-06-30T10:33:29.895Z,172.67
2023-06-30T10:34:29.768Z,172.74
2023-06-30T10:35:29.816Z,173.65
2023-06-30T10:36:29.946Z,173.44
2023-06-30T10:37:30.044Z,170.58
2023-06-30T10:38:30.063Z,171.99
2023-06-30T10:39:30.116Z,171.08
2023-06-30T10:40:30.241Z,170.15
2023-06-30T10:41:30.243Z,169.78
2023-06-30T10:42:30.278Z,168.44
2023-06-30T10:43:30.358Z,171.44
2023-06-30T10:44:30.442Z,168.96
2023-06-30T10:45:30.491Z,169.59
2023-06-30T10:46:30.580Z,168.26
2023-06-30T10:47:30.587Z,168.32
2023-06-30T10:48:30.665Z,170.15
2023-06-30T10:49:30.732Z,168.86
2023-06-30T10:50:30.741Z,170.33
2023-06-30T10:51:30.845Z,166.66
2023-06-30T10:52:31.219Z,169.41
2023-06-30T10:53:31.039Z,168.65
2023-06-30T10:54:31.101Z,168.05
2023-06-30T10:55:31.054Z,165.62
2023-06-30T10:56:31.191Z,167.82
2023-06-30T10:57:31.134Z,168.03
2023-06-30T10:58:31.203Z,165.41
2023-06-30T10:59:31.285Z,164.56
2023-06-30T11:00:31.343Z,166.48
2023-06-30T11:01:31.378Z,164.61
2023-06-30T11:02:31.496Z,164.18
2023-06-30T11:03:31.611Z,163.40
2023-06-30T11:04:31.916Z,167.45
2023-06-30T11:05:31.603Z,167.66
2023-06-30T11:06:31.730Z,165.52
2023-06-30T11:07:31.699Z,164.37
2023-06-30T11:08:31.717Z,161.15
2023-06-30T11:09:31.793Z,161.47
2023-06-30T11:10:31.834Z,164.03
2023-06-30T11:11:31.909Z,163.69
2023-06-30T11:12:31.976Z,162.46
2023-06-30T11:13:31.989Z,160.19
2023-06-30T11:14:32.071Z,162.82
2023-06-30T11:15:32.118Z,159.16
2023-06-30T11:16:32.137Z,157.83
2023-06-30T11:17:32.314Z,159.35
2023-06-30T11:18:32.417Z,159.21
2023-06-30T11:19:32.374Z,158.16
2023-06-30T11:20:32.426Z,157.28
2023-06-30T11:21:32.410Z,155.18
2023-06-30T11:22:32.510Z,155.85
2023-06-30T11:23:32.955Z,153.48
2023-06-30T11:24:32.566Z,155.64
2023-06-30T11:25:32.593Z,155.92
2023-06-30T11:26:32.615Z,156.34
2023-06-30T11:27:32.614Z,155.09
2023-06-30T11:28:32.838Z,152.87
2023-06-30T11:29:32.725Z,153.87
2023-06-30T11:30:32.761Z,156.60
2023-06-30T11:31:32.797Z,152.23
2023-06-30T11:32:32.826Z,154.15
2023-06-30T11:33:32.841Z,149.77
2023-06-30T11:34:32.878Z,152.24
2023-06-30T11:35:33.193Z,149.84
2023-06-30T11:36:32.876Z,148.16
2023-06-30T11:37:32.949Z,149.98
2023-06-30T11:38:32.912Z,145.88
2023-06-30T11:39:32.921Z,143.76
2023-06-30T11:40:32.946Z,143.63
2023-06-30T11:41:32.923Z,145.47
2023-06-30T11:42:32.963Z,141.42
2023-06-30T11:43:32.948Z,142.85
2023-06-30T11:44:32.951Z,139.82
2023-06-30T11:45:32.948Z,136.50
2023-06-30T11:46:32.972Z,133.88
2023-06-30T11:47:32.940Z,132.81
2023-06-30T11:48:32.980Z,137.17
2023-06-30T11:49:33.062Z,139.77
2023-06-30T11:50:32.934Z,136.53
2023-06-30T11:51:32.970Z,135.72
2023-06-30T11:52:33.040Z,129.06
2023-06-30T11:53:33.006Z,132.74
2023-06-30T11:54:32.972Z,132.46
2023-06-30T11:55:33.002Z,127.50
2023-06-30T11:56:32.985Z,126.14
2023-06-30T11:57:33.039Z,124.93
2023-06-30T11:58:32.993Z,130.06
2023-06-30T11:59:32.961Z,128.77
2023-06-30T12:00:33.019Z,122.39
2023-06-30T12:01:33.013Z,124.02
2023-06-30T12:02:33.076Z,122.70
2023-06-30T12:03:33.054Z,123.63
2023-06-30T12:04:32.991Z,126.19
2023-06-30T12:05:32.998Z,123.98
2023-06-30T12:06:32.982Z,125.77
2023-06-30T12:07:33.139Z,124.84
2023-06-30T12:08:33.020Z,129.67
2023-06-30T12:09:33.086Z,131.00
2023-06-30T12:10:32.997Z,131.89
2023-06-30T12:11:32.959Z,132.74
2023-06-30T12:12:32.948Z,131.81
2023-06-30T12:13:33.016Z,132.05
2023-06-30T12:14:32.978Z,134.30
2023-06-30T12:15:32.964Z,132.65
2023-06-30T12:16:33.015Z,133.23
2023-06-30T12:17:33.013Z,134.00
2023-06-30T12:18:32.982Z,133.15
2023-06-30T12:19:33.026Z,134.82
2023-06-30T12:20:32.973Z,136.59
2023-06-30T12:21:32.994Z,134.72
2023-06-30T12:22:33.016Z,134.42
2023-06-30T12:23:32.955Z,137.13
2023-06-30T12:24:32.977Z,137.77
2023-06-30T12:25:33.018Z,136.81
2023-06-30T12:26:33.082Z,135.48
2023-06-30T12:27:33.163Z,134.99
2023-06-30T12:28:33.104Z,135.42